CHH6924 ZJHK-ZHCC
Flight info
| Callsign | CHH6924 |
|---|---|
| Flight time | N/A |
| Altitude | 38100 |
| Route | AGTEL W71 LH R339 BHY W159 IVPUB W120 ENKUS R343 GOSMA W82 UPMAT W56 IGMIG |
| Aircraft | A346/H-SDE2E3FGHIJ3J4J5M1RWXY/LB1D1 |
Departure
| Time | 2026-05-07 12:36 |
|---|---|
| Airport | Haikou Meilan International Airport (ZJHK) |
Arrival
| Time | N/A |
|---|---|
| Airport | Zhengzhou Xinzheng International Airport (ZHCC) |
| Time | Latitude | Longitude | Altitude | Speed | Heading |
|---|---|---|---|---|---|
| 2026-05-07 12:15 | 19.94874 | 110.45683 | 58 ft | 0 kts | 179° |
| 2026-05-07 12:27 | 19.94890 | 110.45682 | 57 ft | 4 kts | 179° |
| 2026-05-07 12:27 | 19.94916 | 110.45682 | 58 ft | 4 kts | 179° |
| 2026-05-07 12:27 | 19.94940 | 110.45681 | 58 ft | 4 kts | 182° |
| 2026-05-07 12:28 | 19.94957 | 110.45685 | 56 ft | 4 kts | 221° |
| 2026-05-07 12:28 | 19.94964 | 110.45699 | 56 ft | 4 kts | 262° |
| 2026-05-07 12:28 | 19.94965 | 110.45727 | 56 ft | 4 kts | 270° |
| 2026-05-07 12:28 | 19.94965 | 110.45742 | 56 ft | 0 kts | 270° |
| 2026-05-07 12:32 | 19.94965 | 110.45734 | 56 ft | 2 kts | 270° |
| 2026-05-07 12:32 | 19.94965 | 110.45703 | 56 ft | 6 kts | 270° |
| 2026-05-07 12:33 | 19.95007 | 110.45585 | 57 ft | 12 kts | 309° |
| 2026-05-07 12:33 | 19.95084 | 110.45538 | 59 ft | 14 kts | 340° |
| 2026-05-07 12:33 | 19.95121 | 110.45456 | 58 ft | 8 kts | 250° |
| 2026-05-07 12:34 | 19.95119 | 110.45404 | 62 ft | 10 kts | 270° |
| 2026-05-07 12:34 | 19.95119 | 110.45298 | 63 ft | 19 kts | 270° |
| 2026-05-07 12:34 | 19.95120 | 110.45129 | 62 ft | 27 kts | 271° |
| 2026-05-07 12:34 | 19.95125 | 110.45009 | 54 ft | 8 kts | 296° |
| 2026-05-07 12:35 | 19.95195 | 110.44978 | 55 ft | 16 kts | 8° |
| 2026-05-07 12:35 | 19.95330 | 110.44990 | 53 ft | 17 kts | 17° |
| 2026-05-07 12:35 | 19.95370 | 110.45052 | 53 ft | 12 kts | 76° |
| 2026-05-07 12:35 | 19.95371 | 110.45232 | 56 ft | 52 kts | 90° |
| 2026-05-07 12:36 | 19.95372 | 110.45865 | 66 ft | 117 kts | 89° |
| 2026-05-07 12:36 | 19.95380 | 110.46940 | 68 ft | 171 kts | 89° |
| 2026-05-07 12:36 | 19.95397 | 110.48305 | 375 ft | 195 kts | 90° |
| 2026-05-07 12:36 | 19.95654 | 110.49718 | 1047 ft | 197 kts | 60° |
| 2026-05-07 12:37 | 19.96745 | 110.50559 | 1900 ft | 202 kts | 16° |
| 2026-05-07 12:37 | 19.98177 | 110.50500 | 2391 ft | 216 kts | 342° |
| 2026-05-07 12:37 | 19.99591 | 110.49815 | 2732 ft | 231 kts | 334° |
| 2026-05-07 12:37 | 20.01095 | 110.49031 | 3031 ft | 249 kts | 334° |
| 2026-05-07 12:38 | 20.02705 | 110.48225 | 3494 ft | 259 kts | 335° |
| 2026-05-07 12:38 | 20.04334 | 110.47439 | 4335 ft | 255 kts | 336° |
| 2026-05-07 12:38 | 20.05949 | 110.46678 | 5154 ft | 253 kts | 336° |
| 2026-05-07 12:38 | 20.07545 | 110.45937 | 5871 ft | 255 kts | 336° |
| 2026-05-07 12:39 | 20.09184 | 110.45184 | 6571 ft | 258 kts | 336° |
| 2026-05-07 12:39 | 20.10843 | 110.44425 | 7257 ft | 261 kts | 336° |
| 2026-05-07 12:39 | 20.12516 | 110.43661 | 7972 ft | 263 kts | 336° |
| 2026-05-07 12:39 | 20.14200 | 110.42893 | 8701 ft | 264 kts | 336° |
| 2026-05-07 12:40 | 20.15899 | 110.42118 | 9451 ft | 266 kts | 335° |
| 2026-05-07 12:40 | 20.17608 | 110.41334 | 10145 ft | 269 kts | 335° |
| 2026-05-07 12:40 | 20.19339 | 110.40543 | 10795 ft | 272 kts | 336° |
| 2026-05-07 12:40 | 20.21086 | 110.39743 | 11443 ft | 275 kts | 335° |
| 2026-05-07 12:41 | 20.22824 | 110.38950 | 12100 ft | 277 kts | 335° |
| 2026-05-07 12:41 | 20.24604 | 110.38137 | 12766 ft | 280 kts | 336° |
| 2026-05-07 12:41 | 20.26443 | 110.37417 | 13374 ft | 286 kts | 340° |
| 2026-05-07 12:41 | 20.28381 | 110.36743 | 13732 ft | 301 kts | 340° |
| 2026-05-07 12:42 | 20.30427 | 110.36041 | 13996 ft | 317 kts | 340° |
| 2026-05-07 12:42 | 20.32579 | 110.35304 | 14256 ft | 333 kts | 340° |
| 2026-05-07 12:42 | 20.34835 | 110.34531 | 14526 ft | 348 kts | 340° |
| 2026-05-07 12:42 | 20.37191 | 110.33722 | 14781 ft | 363 kts | 340° |
| 2026-05-07 12:43 | 20.39616 | 110.32890 | 15025 ft | 378 kts | 340° |
| 2026-05-07 12:43 | 20.42166 | 110.32014 | 15260 ft | 392 kts | 340° |
| 2026-05-07 12:43 | 20.44808 | 110.31106 | 15521 ft | 405 kts | 340° |
| 2026-05-07 12:43 | 20.47529 | 110.30232 | 16003 ft | 411 kts | 345° |
| 2026-05-07 12:44 | 20.50355 | 110.29694 | 16581 ft | 415 kts | 351° |
| 2026-05-07 12:44 | 20.53187 | 110.29115 | 17102 ft | 416 kts | 338° |
| 2026-05-07 12:44 | 20.55663 | 110.27559 | 17620 ft | 414 kts | 320° |
| 2026-05-07 12:44 | 20.57851 | 110.25559 | 18251 ft | 415 kts | 317° |
| 2026-05-07 12:45 | 20.60046 | 110.23519 | 18671 ft | 419 kts | 318° |
| 2026-05-07 12:45 | 20.62290 | 110.21513 | 19118 ft | 422 kts | 319° |
| 2026-05-07 12:45 | 20.64554 | 110.19564 | 19578 ft | 425 kts | 320° |
| 2026-05-07 12:45 | 20.66879 | 110.17617 | 20042 ft | 427 kts | 321° |
| 2026-05-07 12:46 | 20.69231 | 110.15680 | 20489 ft | 430 kts | 321° |
| 2026-05-07 12:46 | 20.71617 | 110.13736 | 20941 ft | 433 kts | 322° |
| 2026-05-07 12:46 | 20.74034 | 110.11778 | 21397 ft | 435 kts | 322° |
| 2026-05-07 12:46 | 20.76472 | 110.09814 | 21841 ft | 438 kts | 322° |
| 2026-05-07 12:47 | 20.78913 | 110.07850 | 22285 ft | 440 kts | 322° |
| 2026-05-07 12:47 | 20.81369 | 110.05874 | 22719 ft | 443 kts | 322° |
| 2026-05-07 12:47 | 20.83838 | 110.03887 | 23148 ft | 445 kts | 322° |
| 2026-05-07 12:47 | 20.86288 | 110.01916 | 23539 ft | 448 kts | 322° |
| 2026-05-07 12:48 | 20.88787 | 109.99904 | 23892 ft | 451 kts | 322° |
| 2026-05-07 12:48 | 20.91303 | 109.97878 | 24224 ft | 453 kts | 322° |
| 2026-05-07 12:48 | 20.93829 | 109.95843 | 24589 ft | 456 kts | 322° |
| 2026-05-07 12:48 | 20.96368 | 109.93796 | 24932 ft | 458 kts | 322° |
| 2026-05-07 12:49 | 20.98919 | 109.91739 | 25279 ft | 460 kts | 322° |
| 2026-05-07 12:49 | 21.01493 | 109.89661 | 25617 ft | 463 kts | 322° |
| 2026-05-07 12:49 | 21.04031 | 109.87612 | 25948 ft | 465 kts | 322° |
| 2026-05-07 12:49 | 21.06623 | 109.85517 | 27638 ft | 467 kts | 322° |
| 2026-05-07 12:50 | 21.09216 | 109.83419 | 26509 ft | 469 kts | 322° |
| 2026-05-07 12:50 | 21.11839 | 109.81303 | 26749 ft | 474 kts | 322° |
| 2026-05-07 12:50 | 21.14472 | 109.79177 | 27122 ft | 475 kts | 322° |
| 2026-05-07 12:50 | 21.17118 | 109.77039 | 27453 ft | 477 kts | 322° |
| 2026-05-07 12:51 | 21.19778 | 109.74887 | 27759 ft | 480 kts | 322° |
| 2026-05-07 12:51 | 21.22449 | 109.72724 | 28077 ft | 482 kts | 322° |
| 2026-05-07 12:51 | 21.25135 | 109.70547 | 28399 ft | 484 kts | 322° |
| 2026-05-07 12:51 | 21.27783 | 109.68401 | 28842 ft | 484 kts | 321° |
| 2026-05-07 12:52 | 21.30467 | 109.66225 | 29347 ft | 482 kts | 321° |
| 2026-05-07 12:52 | 21.33135 | 109.64060 | 29833 ft | 480 kts | 321° |
| 2026-05-07 12:52 | 21.35798 | 109.61897 | 30224 ft | 480 kts | 321° |
| 2026-05-07 12:52 | 21.38456 | 109.59737 | 30612 ft | 479 kts | 321° |
| 2026-05-07 12:53 | 21.41105 | 109.57584 | 31056 ft | 476 kts | 321° |
| 2026-05-07 12:53 | 21.43744 | 109.55438 | 31498 ft | 474 kts | 321° |
| 2026-05-07 12:53 | 21.46490 | 109.53492 | 31933 ft | 474 kts | 330° |
| 2026-05-07 12:53 | 21.49516 | 109.52089 | 32377 ft | 474 kts | 339° |
| 2026-05-07 12:54 | 21.52674 | 109.51226 | 32824 ft | 475 kts | 347° |
| 2026-05-07 12:54 | 21.55960 | 109.50845 | 33257 ft | 475 kts | 353° |
| 2026-05-07 12:54 | 21.59250 | 109.50619 | 33717 ft | 473 kts | 353° |
| 2026-05-07 12:54 | 21.62528 | 109.50411 | 34133 ft | 471 kts | 354° |
| 2026-05-07 12:55 | 21.65790 | 109.50203 | 34510 ft | 469 kts | 354° |
| 2026-05-07 12:55 | 21.69042 | 109.49992 | 34849 ft | 468 kts | 354° |
| 2026-05-07 12:55 | 21.72290 | 109.49777 | 35170 ft | 467 kts | 354° |
| 2026-05-07 12:55 | 21.75537 | 109.49558 | 35476 ft | 467 kts | 354° |
| 2026-05-07 12:56 | 21.78736 | 109.49340 | 35769 ft | 466 kts | 354° |
| 2026-05-07 12:56 | 21.81971 | 109.49118 | 36069 ft | 466 kts | 354° |
| 2026-05-07 12:56 | 21.85202 | 109.48896 | 36344 ft | 466 kts | 354° |
| 2026-05-07 12:56 | 21.88441 | 109.48672 | 36591 ft | 467 kts | 354° |
| 2026-05-07 12:57 | 21.91685 | 109.48448 | 36836 ft | 468 kts | 354° |
| 2026-05-07 12:57 | 21.94935 | 109.48221 | 37096 ft | 468 kts | 354° |
| 2026-05-07 12:57 | 21.98191 | 109.47995 | 37365 ft | 469 kts | 354° |
| 2026-05-07 12:57 | 22.01441 | 109.47771 | 37629 ft | 469 kts | 354° |
| 2026-05-07 12:58 | 22.04660 | 109.47549 | 37872 ft | 470 kts | 354° |
| 2026-05-07 12:58 | 22.07932 | 109.47323 | 38006 ft | 472 kts | 354° |
| 2026-05-07 12:58 | 22.14491 | 109.46869 | 38009 ft | 473 kts | 354° |
| 2026-05-07 12:59 | 22.21053 | 109.46415 | 38010 ft | 473 kts | 354° |
| 2026-05-07 12:59 | 22.27629 | 109.45954 | 38009 ft | 475 kts | 354° |
| 2026-05-07 13:00 | 22.34243 | 109.45499 | 38015 ft | 477 kts | 354° |
| 2026-05-07 13:00 | 22.40821 | 109.45041 | 38016 ft | 477 kts | 354° |
| 2026-05-07 13:01 | 22.47460 | 109.44578 | 38014 ft | 477 kts | 354° |
| 2026-05-07 13:01 | 22.53973 | 109.44124 | 38019 ft | 477 kts | 354° |
| 2026-05-07 13:02 | 22.60606 | 109.43664 | 38012 ft | 478 kts | 354° |
| 2026-05-07 13:02 | 22.67206 | 109.43217 | 38008 ft | 479 kts | 355° |
| 2026-05-07 13:03 | 22.73877 | 109.43431 | 38011 ft | 481 kts | 2° |
| 2026-05-07 13:03 | 22.80523 | 109.44438 | 38010 ft | 483 kts | 7° |
| 2026-05-07 13:04 | 22.87134 | 109.45769 | 38013 ft | 485 kts | 7° |
| 2026-05-07 13:04 | 22.93735 | 109.47088 | 38007 ft | 485 kts | 7° |
| 2026-05-07 13:05 | 23.00370 | 109.48407 | 38011 ft | 485 kts | 7° |
| 2026-05-07 13:05 | 23.07012 | 109.49726 | 38011 ft | 485 kts | 7° |
| 2026-05-07 13:06 | 23.13654 | 109.51046 | 38008 ft | 485 kts | 7° |
| 2026-05-07 13:06 | 23.20250 | 109.52366 | 38010 ft | 486 kts | 6° |
| 2026-05-07 13:07 | 23.26909 | 109.53687 | 38010 ft | 486 kts | 6° |
| 2026-05-07 13:07 | 23.33562 | 109.55010 | 38010 ft | 486 kts | 6° |
| 2026-05-07 13:08 | 23.40217 | 109.56336 | 38008 ft | 486 kts | 6° |
| 2026-05-07 13:08 | 23.46832 | 109.57662 | 38010 ft | 487 kts | 6° |
| 2026-05-07 13:09 | 23.53516 | 109.58996 | 38003 ft | 488 kts | 5° |
| 2026-05-07 13:09 | 23.60199 | 109.60330 | 38007 ft | 488 kts | 6° |
| 2026-05-07 13:10 | 23.66884 | 109.61669 | 38006 ft | 488 kts | 6° |
| 2026-05-07 13:10 | 23.73568 | 109.63008 | 38027 ft | 488 kts | 5° |
| 2026-05-07 13:11 | 23.80191 | 109.64342 | 38008 ft | 487 kts | 5° |
| 2026-05-07 13:11 | 23.86855 | 109.65675 | 38004 ft | 486 kts | 5° |
| 2026-05-07 13:12 | 23.93510 | 109.67010 | 38013 ft | 486 kts | 5° |
| 2026-05-07 13:12 | 24.00163 | 109.68347 | 38012 ft | 486 kts | 5° |
| 2026-05-07 13:13 | 24.06774 | 109.69678 | 38014 ft | 486 kts | 5° |
| 2026-05-07 13:13 | 24.13429 | 109.71019 | 38011 ft | 486 kts | 5° |
| 2026-05-07 13:14 | 24.20091 | 109.72363 | 38013 ft | 487 kts | 5° |
| 2026-05-07 13:14 | 24.26749 | 109.73708 | 38015 ft | 486 kts | 5° |
| 2026-05-07 13:15 | 24.33360 | 109.75045 | 38028 ft | 486 kts | 5° |
| 2026-05-07 13:15 | 24.39991 | 109.76388 | 38018 ft | 484 kts | 5° |
| 2026-05-07 13:16 | 24.46637 | 109.77733 | 38024 ft | 484 kts | 5° |
| 2026-05-07 13:16 | 24.53261 | 109.79076 | 38022 ft | 484 kts | 5° |
| 2026-05-07 13:17 | 24.59869 | 109.80521 | 38028 ft | 486 kts | 8° |
| 2026-05-07 13:17 | 24.66300 | 109.82734 | 38041 ft | 491 kts | 15° |
| 2026-05-07 13:18 | 24.72541 | 109.85878 | 38036 ft | 496 kts | 23° |
| 2026-05-07 13:18 | 24.78525 | 109.89944 | 38040 ft | 501 kts | 28° |
| 2026-05-07 13:19 | 24.84316 | 109.94261 | 38045 ft | 501 kts | 29° |
| 2026-05-07 13:19 | 24.90064 | 109.98554 | 38063 ft | 500 kts | 28° |
| 2026-05-07 13:20 | 24.95836 | 110.02853 | 38066 ft | 500 kts | 28° |
| 2026-05-07 13:20 | 25.01623 | 110.07157 | 38070 ft | 501 kts | 28° |
| 2026-05-07 13:21 | 25.07387 | 110.11450 | 38075 ft | 500 kts | 28° |
| 2026-05-07 13:21 | 25.13114 | 110.15721 | 38083 ft | 500 kts | 28° |
| 2026-05-07 13:22 | 25.18898 | 110.20039 | 38082 ft | 500 kts | 28° |
| 2026-05-07 13:22 | 25.24670 | 110.24336 | 38079 ft | 500 kts | 28° |
| 2026-05-07 13:23 | 25.30446 | 110.28624 | 38080 ft | 500 kts | 28° |
| 2026-05-07 13:23 | 25.36184 | 110.32889 | 38074 ft | 500 kts | 28° |
| 2026-05-07 13:24 | 25.41958 | 110.37188 | 38096 ft | 500 kts | 28° |
| 2026-05-07 13:24 | 25.47745 | 110.41464 | 38086 ft | 500 kts | 28° |
| 2026-05-07 13:25 | 25.53501 | 110.45697 | 38097 ft | 500 kts | 28° |
| 2026-05-07 13:25 | 25.59320 | 110.49905 | 38104 ft | 499 kts | 26° |
| 2026-05-07 13:26 | 25.65216 | 110.53955 | 38113 ft | 498 kts | 26° |
| 2026-05-07 13:26 | 25.71105 | 110.58016 | 38113 ft | 499 kts | 26° |
| 2026-05-07 13:27 | 25.76995 | 110.62090 | 38129 ft | 498 kts | 26° |
| 2026-05-07 13:27 | 25.82878 | 110.66064 | 38138 ft | 498 kts | 26° |
| 2026-05-07 13:28 | 25.88802 | 110.70063 | 38137 ft | 498 kts | 26° |
| 2026-05-07 13:28 | 25.94728 | 110.74075 | 38164 ft | 498 kts | 26° |
| 2026-05-07 13:29 | 26.00641 | 110.78086 | 38153 ft | 498 kts | 26° |
| 2026-05-07 13:29 | 26.06518 | 110.82080 | 38159 ft | 498 kts | 26° |
| 2026-05-07 13:30 | 26.12438 | 110.86090 | 38156 ft | 498 kts | 26° |
| 2026-05-07 13:30 | 26.18357 | 110.90101 | 38162 ft | 498 kts | 26° |
| 2026-05-07 13:31 | 26.24275 | 110.94118 | 38178 ft | 498 kts | 26° |
| 2026-05-07 13:31 | 26.30146 | 110.98106 | 38164 ft | 498 kts | 26° |
| 2026-05-07 13:32 | 26.36059 | 111.02129 | 38158 ft | 498 kts | 26° |
| 2026-05-07 13:32 | 26.41969 | 111.06155 | 38155 ft | 497 kts | 26° |
| 2026-05-07 13:33 | 26.47878 | 111.10184 | 38177 ft | 499 kts | 26° |
| 2026-05-07 13:33 | 26.53803 | 111.14233 | 38161 ft | 500 kts | 25° |
| 2026-05-07 13:34 | 26.62599 | 111.20384 | 38165 ft | 499 kts | 27° |
| 2026-05-07 13:35 | 26.68402 | 111.24667 | 38164 ft | 500 kts | 27° |
| 2026-05-07 13:35 | 26.74218 | 111.28950 | 38156 ft | 501 kts | 27° |
| 2026-05-07 13:36 | 26.80039 | 111.33223 | 38154 ft | 500 kts | 27° |
| 2026-05-07 13:36 | 26.85823 | 111.37470 | 38161 ft | 500 kts | 27° |
| 2026-05-07 13:37 | 26.91647 | 111.41729 | 38149 ft | 499 kts | 26° |
| 2026-05-07 13:37 | 26.97594 | 111.45695 | 38171 ft | 497 kts | 24° |
| 2026-05-07 13:38 | 27.03582 | 111.49618 | 38159 ft | 500 kts | 24° |
| 2026-05-07 13:38 | 27.09544 | 111.53534 | 38157 ft | 500 kts | 24° |
| 2026-05-07 13:39 | 27.15542 | 111.57489 | 38152 ft | 500 kts | 24° |
| 2026-05-07 13:39 | 27.21508 | 111.61511 | 38161 ft | 501 kts | 25° |
| 2026-05-07 13:40 | 27.27453 | 111.65644 | 38170 ft | 503 kts | 25° |
| 2026-05-07 13:40 | 27.33374 | 111.69749 | 38167 ft | 503 kts | 25° |
| 2026-05-07 13:41 | 27.39338 | 111.73879 | 38172 ft | 503 kts | 25° |
| 2026-05-07 13:41 | 27.45305 | 111.78014 | 38177 ft | 503 kts | 25° |
| 2026-05-07 13:42 | 27.51229 | 111.82129 | 38168 ft | 504 kts | 25° |
| 2026-05-07 13:42 | 27.57207 | 111.86284 | 38165 ft | 505 kts | 25° |
| 2026-05-07 13:43 | 27.63211 | 111.90460 | 38169 ft | 505 kts | 25° |
| 2026-05-07 13:43 | 27.69195 | 111.94630 | 38168 ft | 505 kts | 25° |
| 2026-05-07 13:44 | 27.75133 | 111.98778 | 38181 ft | 505 kts | 24° |
| 2026-05-07 13:44 | 27.81111 | 112.02952 | 38174 ft | 506 kts | 24° |
| 2026-05-07 13:45 | 27.87104 | 112.07135 | 38165 ft | 506 kts | 24° |
| 2026-05-07 13:45 | 27.93093 | 112.11324 | 38171 ft | 506 kts | 24° |
| 2026-05-07 13:46 | 27.99045 | 112.15478 | 38195 ft | 506 kts | 24° |
| 2026-05-07 13:46 | 28.05064 | 112.19619 | 38173 ft | 507 kts | 24° |
| 2026-05-07 13:47 | 28.10942 | 112.24123 | 38181 ft | 511 kts | 28° |
| 2026-05-07 13:47 | 28.16722 | 112.28835 | 38184 ft | 512 kts | 28° |
| 2026-05-07 13:48 | 28.22533 | 112.33489 | 38193 ft | 511 kts | 27° |
| 2026-05-07 13:48 | 28.28323 | 112.38075 | 38182 ft | 511 kts | 27° |
| 2026-05-07 13:49 | 28.34160 | 112.42701 | 38182 ft | 511 kts | 27° |
| 2026-05-07 13:49 | 28.39993 | 112.47337 | 38167 ft | 511 kts | 27° |
| 2026-05-07 13:50 | 28.45781 | 112.51947 | 38200 ft | 512 kts | 27° |
| 2026-05-07 13:50 | 28.51617 | 112.56609 | 38181 ft | 513 kts | 27° |
| 2026-05-07 13:51 | 28.57460 | 112.61275 | 38179 ft | 513 kts | 27° |
| 2026-05-07 13:51 | 28.63299 | 112.65946 | 38175 ft | 513 kts | 27° |
| 2026-05-07 13:52 | 28.69145 | 112.70629 | 38176 ft | 513 kts | 27° |
| 2026-05-07 13:52 | 28.74951 | 112.75290 | 38175 ft | 515 kts | 27° |
| 2026-05-07 13:53 | 28.80811 | 112.79995 | 38174 ft | 514 kts | 27° |
| 2026-05-07 13:53 | 28.86657 | 112.84699 | 38177 ft | 514 kts | 27° |
| 2026-05-07 13:54 | 28.92502 | 112.89408 | 38177 ft | 514 kts | 27° |
| 2026-05-07 13:54 | 28.98308 | 112.94095 | 38191 ft | 515 kts | 27° |
| 2026-05-07 13:55 | 29.04157 | 112.98818 | 38176 ft | 515 kts | 27° |
| 2026-05-07 13:55 | 29.10010 | 113.03553 | 38174 ft | 515 kts | 27° |
| 2026-05-07 13:56 | 29.15865 | 113.08297 | 38177 ft | 515 kts | 27° |
| 2026-05-07 13:56 | 29.21677 | 113.13012 | 38176 ft | 515 kts | 27° |
| 2026-05-07 13:57 | 29.27526 | 113.17765 | 38173 ft | 515 kts | 27° |
| 2026-05-07 13:57 | 29.33383 | 113.22492 | 38176 ft | 513 kts | 25° |
| 2026-05-07 13:58 | 29.39469 | 113.26634 | 38177 ft | 505 kts | 19° |
| 2026-05-07 13:58 | 29.45660 | 113.30326 | 38185 ft | 505 kts | 18° |
| 2026-05-07 13:59 | 29.51912 | 113.34026 | 38190 ft | 506 kts | 18° |
| 2026-05-07 13:59 | 29.58157 | 113.37746 | 38182 ft | 506 kts | 18° |
| 2026-05-07 14:00 | 29.64399 | 113.41478 | 38218 ft | 506 kts | 18° |
| 2026-05-07 14:00 | 29.70597 | 113.45190 | 38194 ft | 506 kts | 18° |
| 2026-05-07 14:01 | 29.76839 | 113.48933 | 38184 ft | 505 kts | 18° |
| 2026-05-07 14:01 | 29.83075 | 113.52678 | 38184 ft | 505 kts | 18° |
| 2026-05-07 14:02 | 29.89313 | 113.56431 | 38204 ft | 506 kts | 18° |
| 2026-05-07 14:02 | 29.95584 | 113.60087 | 38193 ft | 502 kts | 15° |
| 2026-05-07 14:03 | 30.01916 | 113.63283 | 38186 ft | 500 kts | 13° |
| 2026-05-07 14:03 | 30.08308 | 113.66450 | 38188 ft | 500 kts | 13° |
| 2026-05-07 14:04 | 30.14704 | 113.69633 | 38212 ft | 500 kts | 13° |
| 2026-05-07 14:04 | 30.21096 | 113.72825 | 38195 ft | 500 kts | 14° |
| 2026-05-07 14:05 | 30.27442 | 113.76001 | 38181 ft | 500 kts | 14° |
| 2026-05-07 14:05 | 30.33836 | 113.79206 | 38188 ft | 500 kts | 14° |
| 2026-05-07 14:06 | 30.40229 | 113.82417 | 38203 ft | 501 kts | 14° |
| 2026-05-07 14:06 | 30.46643 | 113.85641 | 38195 ft | 501 kts | 14° |
| 2026-05-07 14:07 | 30.53000 | 113.88840 | 38191 ft | 501 kts | 14° |
| 2026-05-07 14:07 | 30.59400 | 113.92067 | 38222 ft | 501 kts | 14° |
| 2026-05-07 14:08 | 30.65817 | 113.95282 | 38198 ft | 502 kts | 13° |
| 2026-05-07 14:08 | 30.72234 | 113.98520 | 38194 ft | 505 kts | 15° |
| 2026-05-07 14:09 | 30.78583 | 114.02064 | 38190 ft | 506 kts | 16° |
| 2026-05-07 14:09 | 30.84909 | 114.05506 | 38216 ft | 505 kts | 15° |
| 2026-05-07 14:10 | 30.91313 | 114.08962 | 38197 ft | 506 kts | 15° |
| 2026-05-07 14:10 | 30.97706 | 114.12424 | 38199 ft | 506 kts | 15° |
| 2026-05-07 14:11 | 31.04087 | 114.15891 | 38199 ft | 506 kts | 15° |
| 2026-05-07 14:11 | 31.10424 | 114.19337 | 38209 ft | 505 kts | 15° |
| 2026-05-07 14:12 | 31.16797 | 114.22804 | 38201 ft | 506 kts | 15° |
| 2026-05-07 14:12 | 31.23179 | 114.26282 | 38204 ft | 506 kts | 15° |
| 2026-05-07 14:13 | 31.29591 | 114.29579 | 38241 ft | 499 kts | 10° |
| 2026-05-07 14:13 | 31.31752 | 114.30474 | 38232 ft | 495 kts | 8° |